メインページ
METAR-TAF:

METAR-TAF

空港 :

ラロトンガ国際空港

ラロトンガ島, クック諸島

緯度: 21-12S, 経度: 159-49W, 海抜: 7m

現時点の気象観測

当レポートは52分前の06:00(UTC)に作成
南東の風 2kt
気温 20°C
湿度 88%
気圧 1014 hPa
視程10km以上
高度2100ftの雲はほとんどない

METAR: NCRG 150600Z 14002KT 9999 FEW021 20/18 Q1014 RMK DEW

時間: 20:52 (06:52 UTC)

予報

当レポートは1時間45分前の05:07(UTC)に作成
予報は15日の 06時(UTC)から 16日の 06時(UTC)まで有効
南東の風 5kt
視程10km以上
高度2100ftの雲はほとんどない

TAF: NCRG 150507Z 1506/1606 14005KT 9999 FEW021

4,000以上の空港の気象観測と天気予報(METAR報とTAF報)

利用可能な観測所は地図上に黄色い丸と赤い丸で示す。

丸の上にカーソルを重ねると観測所名を参照できる。

次にクリックすると気象観測と天気予報を参照できる。

マップの切り替え:黒色「×」印の緑ボタンをクリックして拡大、「-」印の緑ボタンをクリックして縮小、緑色の三角印をクリックして隣りの地図に切り替え


METAR-TAF: